sensor_id;sensor_type;location;lat;lon;timestamp;P1;durP1;ratioP1;P2;durP2;ratioP2
46210;SDS011;52144;48.040;-1.594;2023-02-16T00:01:14;20.25;;;7.07;;
46210;SDS011;52144;48.040;-1.594;2023-02-16T00:03:47;15.18;;;6.97;;
46210;SDS011;52144;48.040;-1.594;2023-02-16T00:06:15;18.30;;;8.40;;
46210;SDS011;52144;48.040;-1.594;2023-02-16T00:08:44;12.60;;;6.30;;
46210;SDS011;52144;48.040;-1.594;2023-02-16T00:11:15;12.60;;;7.03;;
46210;SDS011;52144;48.040;-1.594;2023-02-16T00:14:02;14.70;;;7.32;;
46210;SDS011;52144;48.040;-1.594;2023-02-16T00:16:34;12.13;;;6.60;;
46210;SDS011;52144;48.040;-1.594;2023-02-16T00:19:08;12.43;;;6.00;;
46210;SDS011;52144;48.040;-1.594;2023-02-16T00:21:43;17.55;;;7.57;;
46210;SDS011;52144;48.040;-1.594;2023-02-16T00:24:11;16.95;;;8.30;;
46210;SDS011;52144;48.040;-1.594;2023-02-16T00:26:39;10.63;;;6.72;;
46210;SDS011;52144;48.040;-1.594;2023-02-16T00:29:09;11.43;;;6.03;;
46210;SDS011;52144;48.040;-1.594;2023-02-16T00:31:41;14.02;;;7.57;;
46210;SDS011;52144;48.040;-1.594;2023-02-16T00:34:19;15.05;;;8.20;;
46210;SDS011;52144;48.040;-1.594;2023-02-16T00:36:54;16.02;;;7.30;;
46210;SDS011;52144;48.040;-1.594;2023-02-16T00:39:23;16.38;;;7.18;;
46210;SDS011;52144;48.040;-1.594;2023-02-16T00:41:52;14.27;;;7.40;;
46210;SDS011;52144;48.040;-1.594;2023-02-16T00:44:29;13.30;;;6.97;;
46210;SDS011;52144;48.040;-1.594;2023-02-16T00:47:07;16.65;;;8.30;;
46210;SDS011;52144;48.040;-1.594;2023-02-16T00:49:46;16.70;;;7.65;;
46210;SDS011;52144;48.040;-1.594;2023-02-16T00:55:02;12.70;;;7.40;;
46210;SDS011;52144;48.040;-1.594;2023-02-16T00:57:34;9.25;;;6.43;;
46210;SDS011;52144;48.040;-1.594;2023-02-16T01:00:06;18.15;;;8.88;;
46210;SDS011;52144;48.040;-1.594;2023-02-16T01:02:40;12.60;;;7.55;;
46210;SDS011;52144;48.040;-1.594;2023-02-16T01:05:09;12.98;;;7.47;;
46210;SDS011;52144;48.040;-1.594;2023-02-16T01:07:37;15.65;;;8.40;;
46210;SDS011;52144;48.040;-1.594;2023-02-16T01:10:22;15.73;;;7.30;;
46210;SDS011;52144;48.040;-1.594;2023-02-16T01:13:08;18.42;;;7.93;;
46210;SDS011;52144;48.040;-1.594;2023-02-16T01:15:37;15.85;;;7.63;;
46210;SDS011;52144;48.040;-1.594;2023-02-16T01:18:07;13.55;;;6.55;;
46210;SDS011;52144;48.040;-1.594;2023-02-16T01:20:37;12.10;;;7.13;;
46210;SDS011;52144;48.040;-1.594;2023-02-16T01:23:04;14.02;;;7.63;;
46210;SDS011;52144;48.040;-1.594;2023-02-16T01:25:32;12.65;;;8.20;;
46210;SDS011;52144;48.040;-1.594;2023-02-16T01:28:02;12.95;;;7.68;;
46210;SDS011;52144;48.040;-1.594;2023-02-16T01:30:30;16.58;;;8.30;;
46210;SDS011;52144;48.040;-1.594;2023-02-16T01:32:58;16.38;;;9.05;;
46210;SDS011;52144;48.040;-1.594;2023-02-16T01:35:29;15.82;;;7.22;;
46210;SDS011;52144;48.040;-1.594;2023-02-16T01:38:00;17.52;;;8.73;;
46210;SDS011;52144;48.040;-1.594;2023-02-16T01:40:29;12.55;;;7.65;;
46210;SDS011;52144;48.040;-1.594;2023-02-16T01:43:05;18.98;;;8.02;;
46210;SDS011;52144;48.040;-1.594;2023-02-16T01:45:42;19.77;;;8.30;;
46210;SDS011;52144;48.040;-1.594;2023-02-16T01:48:17;17.90;;;6.50;;
46210;SDS011;52144;48.040;-1.594;2023-02-16T01:50:51;12.13;;;6.60;;
46210;SDS011;52144;48.040;-1.594;2023-02-16T01:53:27;15.63;;;7.53;;
46210;SDS011;52144;48.040;-1.594;2023-02-16T01:55:59;13.45;;;6.75;;
46210;SDS011;52144;48.040;-1.594;2023-02-16T01:58:32;14.50;;;7.15;;
46210;SDS011;52144;48.040;-1.594;2023-02-16T02:04:21;9.85;;;6.65;;
46210;SDS011;52144;48.040;-1.594;2023-02-16T02:07:12;14.38;;;6.63;;
46210;SDS011;52144;48.040;-1.594;2023-02-16T02:09:48;16.67;;;7.63;;
46210;SDS011;52144;48.040;-1.594;2023-02-16T02:12:24;14.65;;;8.05;;
46210;SDS011;52144;48.040;-1.594;2023-02-16T02:14:56;11.93;;;7.57;;
46210;SDS011;52144;48.040;-1.594;2023-02-16T02:17:23;16.20;;;7.47;;
46210;SDS011;52144;48.040;-1.594;2023-02-16T02:20:04;10.55;;;6.90;;
46210;SDS011;52144;48.040;-1.594;2023-02-16T02:22:51;11.32;;;6.45;;
46210;SDS011;52144;48.040;-1.594;2023-02-16T02:29:00;10.63;;;5.75;;
46210;SDS011;52144;48.040;-1.594;2023-02-16T02:31:40;13.63;;;6.95;;
46210;SDS011;52144;48.040;-1.594;2023-02-16T02:34:21;12.27;;;6.80;;
46210;SDS011;52144;48.040;-1.594;2023-02-16T02:36:57;12.27;;;7.00;;
46210;SDS011;52144;48.040;-1.594;2023-02-16T02:39:33;22.48;;;7.80;;
46210;SDS011;52144;48.040;-1.594;2023-02-16T02:42:08;18.83;;;7.70;;
46210;SDS011;52144;48.040;-1.594;2023-02-16T02:44:44;15.55;;;7.57;;
46210;SDS011;52144;48.040;-1.594;2023-02-16T02:47:15;12.57;;;7.47;;
46210;SDS011;52144;48.040;-1.594;2023-02-16T02:49:48;16.75;;;7.88;;
46210;SDS011;52144;48.040;-1.594;2023-02-16T02:52:16;12.85;;;7.00;;
46210;SDS011;52144;48.040;-1.594;2023-02-16T02:54:45;13.27;;;6.43;;
46210;SDS011;52144;48.040;-1.594;2023-02-16T02:57:33;15.35;;;7.25;;
46210;SDS011;52144;48.040;-1.594;2023-02-16T03:00:24;15.98;;;5.90;;
46210;SDS011;52144;48.040;-1.594;2023-02-16T03:03:10;11.10;;;6.03;;
46210;SDS011;52144;48.040;-1.594;2023-02-16T03:05:43;13.10;;;7.00;;
46210;SDS011;52144;48.040;-1.594;2023-02-16T03:08:15;14.50;;;7.60;;
46210;SDS011;52144;48.040;-1.594;2023-02-16T03:10:46;13.93;;;7.18;;
46210;SDS011;52144;48.040;-1.594;2023-02-16T03:13:35;16.98;;;8.25;;
46210;SDS011;52144;48.040;-1.594;2023-02-16T03:16:09;14.23;;;8.15;;
46210;SDS011;52144;48.040;-1.594;2023-02-16T03:18:40;18.08;;;8.20;;
46210;SDS011;52144;48.040;-1.594;2023-02-16T03:21:28;12.68;;;6.68;;
46210;SDS011;52144;48.040;-1.594;2023-02-16T03:24:15;9.73;;;6.10;;
46210;SDS011;52144;48.040;-1.594;2023-02-16T03:27:04;14.55;;;7.72;;
46210;SDS011;52144;48.040;-1.594;2023-02-16T03:29:52;22.23;;;8.75;;
46210;SDS011;52144;48.040;-1.594;2023-02-16T03:32:22;14.38;;;8.38;;
46210;SDS011;52144;48.040;-1.594;2023-02-16T03:34:50;10.30;;;6.95;;
46210;SDS011;52144;48.040;-1.594;2023-02-16T03:37:18;14.35;;;8.13;;
46210;SDS011;52144;48.040;-1.594;2023-02-16T03:39:47;21.73;;;9.20;;
46210;SDS011;52144;48.040;-1.594;2023-02-16T03:42:33;16.83;;;6.32;;
46210;SDS011;52144;48.040;-1.594;2023-02-16T03:45:00;13.15;;;6.82;;
46210;SDS011;52144;48.040;-1.594;2023-02-16T03:47:30;13.15;;;6.40;;
46210;SDS011;52144;48.040;-1.594;2023-02-16T03:49:57;13.48;;;6.95;;
46210;SDS011;52144;48.040;-1.594;2023-02-16T03:52:25;17.95;;;8.18;;
46210;SDS011;52144;48.040;-1.594;2023-02-16T03:54:53;13.27;;;6.85;;
46210;SDS011;52144;48.040;-1.594;2023-02-16T03:57:21;14.95;;;6.28;;
46210;SDS011;52144;48.040;-1.594;2023-02-16T03:59:48;14.80;;;6.90;;
46210;SDS011;52144;48.040;-1.594;2023-02-16T04:02:17;18.70;;;7.15;;
46210;SDS011;52144;48.040;-1.594;2023-02-16T04:04:46;12.73;;;5.85;;
46210;SDS011;52144;48.040;-1.594;2023-02-16T04:07:14;19.85;;;6.78;;
46210;SDS011;52144;48.040;-1.594;2023-02-16T04:09:42;14.43;;;7.22;;
46210;SDS011;52144;48.040;-1.594;2023-02-16T04:12:10;12.73;;;6.40;;
46210;SDS011;52144;48.040;-1.594;2023-02-16T04:14:56;11.13;;;6.60;;
46210;SDS011;52144;48.040;-1.594;2023-02-16T04:17:24;13.30;;;6.82;;
46210;SDS011;52144;48.040;-1.594;2023-02-16T04:19:53;13.65;;;6.60;;
46210;SDS011;52144;48.040;-1.594;2023-02-16T04:22:21;11.90;;;6.18;;
46210;SDS011;52144;48.040;-1.594;2023-02-16T04:24:49;15.68;;;6.70;;
46210;SDS011;52144;48.040;-1.594;2023-02-16T04:27:17;18.30;;;7.15;;
46210;SDS011;52144;48.040;-1.594;2023-02-16T04:29:44;10.85;;;5.70;;
46210;SDS011;52144;48.040;-1.594;2023-02-16T04:32:12;14.63;;;6.55;;
46210;SDS011;52144;48.040;-1.594;2023-02-16T04:34:40;17.80;;;7.82;;
46210;SDS011;52144;48.040;-1.594;2023-02-16T04:37:09;14.90;;;7.00;;
46210;SDS011;52144;48.040;-1.594;2023-02-16T04:39:37;10.77;;;6.10;;
46210;SDS011;52144;48.040;-1.594;2023-02-16T04:42:05;10.35;;;6.10;;
46210;SDS011;52144;48.040;-1.594;2023-02-16T04:44:33;8.85;;;5.25;;
46210;SDS011;52144;48.040;-1.594;2023-02-16T04:47:01;12.85;;;7.60;;
46210;SDS011;52144;48.040;-1.594;2023-02-16T04:49:28;18.52;;;7.65;;
46210;SDS011;52144;48.040;-1.594;2023-02-16T04:51:56;14.30;;;7.63;;
46210;SDS011;52144;48.040;-1.594;2023-02-16T04:54:27;8.68;;;5.95;;
46210;SDS011;52144;48.040;-1.594;2023-02-16T04:56:55;12.00;;;6.75;;
46210;SDS011;52144;48.040;-1.594;2023-02-16T04:59:23;10.60;;;6.35;;
46210;SDS011;52144;48.040;-1.594;2023-02-16T05:01:50;10.40;;;6.43;;
46210;SDS011;52144;48.040;-1.594;2023-02-16T05:04:19;10.07;;;5.88;;
46210;SDS011;52144;48.040;-1.594;2023-02-16T05:06:47;14.25;;;7.38;;
46210;SDS011;52144;48.040;-1.594;2023-02-16T05:09:15;10.88;;;5.65;;
46210;SDS011;52144;48.040;-1.594;2023-02-16T05:11:44;12.23;;;6.88;;
46210;SDS011;52144;48.040;-1.594;2023-02-16T05:14:30;14.05;;;6.93;;
46210;SDS011;52144;48.040;-1.594;2023-02-16T05:17:08;12.98;;;7.60;;
46210;SDS011;52144;48.040;-1.594;2023-02-16T05:19:37;10.23;;;6.65;;
46210;SDS011;52144;48.040;-1.594;2023-02-16T05:22:06;10.98;;;7.38;;
46210;SDS011;52144;48.040;-1.594;2023-02-16T05:24:34;12.40;;;6.93;;
46210;SDS011;52144;48.040;-1.594;2023-02-16T05:27:05;10.18;;;5.75;;
46210;SDS011;52144;48.040;-1.594;2023-02-16T05:29:33;15.93;;;6.60;;
46210;SDS011;52144;48.040;-1.594;2023-02-16T05:32:01;14.00;;;6.07;;
46210;SDS011;52144;48.040;-1.594;2023-02-16T05:34:30;12.82;;;7.82;;
46210;SDS011;52144;48.040;-1.594;2023-02-16T05:36:58;9.82;;;5.95;;
46210;SDS011;52144;48.040;-1.594;2023-02-16T05:39:25;12.38;;;6.00;;
46210;SDS011;52144;48.040;-1.594;2023-02-16T05:41:53;12.23;;;5.75;;
46210;SDS011;52144;48.040;-1.594;2023-02-16T05:44:22;19.20;;;6.18;;
46210;SDS011;52144;48.040;-1.594;2023-02-16T05:46:50;11.18;;;6.07;;
46210;SDS011;52144;48.040;-1.594;2023-02-16T05:49:18;11.98;;;5.45;;
46210;SDS011;52144;48.040;-1.594;2023-02-16T05:51:46;19.83;;;6.78;;
46210;SDS011;52144;48.040;-1.594;2023-02-16T05:54:14;10.93;;;5.88;;
46210;SDS011;52144;48.040;-1.594;2023-02-16T05:56:43;11.95;;;6.20;;
46210;SDS011;52144;48.040;-1.594;2023-02-16T05:59:12;13.40;;;6.18;;
46210;SDS011;52144;48.040;-1.594;2023-02-16T06:01:42;7.90;;;5.05;;
46210;SDS011;52144;48.040;-1.594;2023-02-16T06:04:16;13.50;;;6.47;;
46210;SDS011;52144;48.040;-1.594;2023-02-16T06:06:44;14.27;;;6.65;;
46210;SDS011;52144;48.040;-1.594;2023-02-16T06:09:12;11.43;;;5.75;;
46210;SDS011;52144;48.040;-1.594;2023-02-16T06:11:40;12.40;;;6.13;;
46210;SDS011;52144;48.040;-1.594;2023-02-16T06:14:09;10.82;;;5.63;;
46210;SDS011;52144;48.040;-1.594;2023-02-16T06:16:39;9.80;;;4.95;;
46210;SDS011;52144;48.040;-1.594;2023-02-16T06:19:09;8.15;;;5.13;;
46210;SDS011;52144;48.040;-1.594;2023-02-16T06:21:38;9.15;;;5.05;;
46210;SDS011;52144;48.040;-1.594;2023-02-16T06:24:06;7.60;;;5.18;;
46210;SDS011;52144;48.040;-1.594;2023-02-16T06:26:36;11.25;;;6.00;;
46210;SDS011;52144;48.040;-1.594;2023-02-16T06:29:04;7.78;;;5.68;;
46210;SDS011;52144;48.040;-1.594;2023-02-16T06:31:32;9.20;;;4.63;;
46210;SDS011;52144;48.040;-1.594;2023-02-16T06:34:02;8.48;;;4.78;;
46210;SDS011;52144;48.040;-1.594;2023-02-16T06:36:32;14.00;;;5.60;;
46210;SDS011;52144;48.040;-1.594;2023-02-16T06:39:00;7.57;;;4.65;;
46210;SDS011;52144;48.040;-1.594;2023-02-16T06:41:28;9.70;;;4.93;;
46210;SDS011;52144;48.040;-1.594;2023-02-16T06:44:01;14.88;;;6.43;;
46210;SDS011;52144;48.040;-1.594;2023-02-16T06:46:31;8.18;;;5.00;;
46210;SDS011;52144;48.040;-1.594;2023-02-16T06:48:59;9.13;;;5.40;;
46210;SDS011;52144;48.040;-1.594;2023-02-16T06:51:27;8.63;;;4.65;;
46210;SDS011;52144;48.040;-1.594;2023-02-16T06:53:57;12.93;;;6.47;;
46210;SDS011;52144;48.040;-1.594;2023-02-16T06:56:25;10.10;;;4.72;;
46210;SDS011;52144;48.040;-1.594;2023-02-16T06:58:53;7.10;;;4.40;;
46210;SDS011;52144;48.040;-1.594;2023-02-16T07:01:21;7.70;;;4.10;;
46210;SDS011;52144;48.040;-1.594;2023-02-16T07:03:51;6.57;;;3.97;;
46210;SDS011;52144;48.040;-1.594;2023-02-16T07:06:20;6.70;;;5.13;;
46210;SDS011;52144;48.040;-1.594;2023-02-16T07:08:49;10.57;;;4.53;;
46210;SDS011;52144;48.040;-1.594;2023-02-16T07:11:19;6.28;;;3.97;;
46210;SDS011;52144;48.040;-1.594;2023-02-16T07:13:47;6.55;;;4.07;;
46210;SDS011;52144;48.040;-1.594;2023-02-16T07:16:15;7.38;;;4.28;;
46210;SDS011;52144;48.040;-1.594;2023-02-16T07:18:43;7.60;;;4.57;;
46210;SDS011;52144;48.040;-1.594;2023-02-16T07:21:11;11.27;;;4.20;;
46210;SDS011;52144;48.040;-1.594;2023-02-16T07:23:39;8.23;;;3.70;;
46210;SDS011;52144;48.040;-1.594;2023-02-16T07:26:07;10.43;;;5.30;;
46210;SDS011;52144;48.040;-1.594;2023-02-16T07:28:36;6.50;;;3.60;;
46210;SDS011;52144;48.040;-1.594;2023-02-16T07:31:05;6.05;;;3.42;;
46210;SDS011;52144;48.040;-1.594;2023-02-16T07:33:34;10.52;;;4.72;;
46210;SDS011;52144;48.040;-1.594;2023-02-16T07:36:02;8.52;;;4.57;;
46210;SDS011;52144;48.040;-1.594;2023-02-16T07:38:30;7.55;;;3.67;;
46210;SDS011;52144;48.040;-1.594;2023-02-16T07:40:58;5.05;;;3.45;;
46210;SDS011;52144;48.040;-1.594;2023-02-16T07:43:26;7.22;;;3.67;;
46210;SDS011;52144;48.040;-1.594;2023-02-16T07:45:55;8.35;;;4.30;;
46210;SDS011;52144;48.040;-1.594;2023-02-16T07:48:23;8.05;;;3.42;;
46210;SDS011;52144;48.040;-1.594;2023-02-16T07:50:51;5.45;;;3.67;;
46210;SDS011;52144;48.040;-1.594;2023-02-16T07:53:19;8.63;;;4.15;;
46210;SDS011;52144;48.040;-1.594;2023-02-16T07:55:47;5.32;;;3.45;;
46210;SDS011;52144;48.040;-1.594;2023-02-16T07:58:15;6.13;;;2.83;;
46210;SDS011;52144;48.040;-1.594;2023-02-16T08:00:53;6.57;;;3.90;;
46210;SDS011;52144;48.040;-1.594;2023-02-16T08:03:23;6.28;;;4.32;;
46210;SDS011;52144;48.040;-1.594;2023-02-16T08:05:51;7.20;;;4.10;;
46210;SDS011;52144;48.040;-1.594;2023-02-16T08:08:19;6.65;;;3.22;;
46210;SDS011;52144;48.040;-1.594;2023-02-16T08:10:47;5.40;;;3.60;;
46210;SDS011;52144;48.040;-1.594;2023-02-16T08:13:14;8.00;;;4.07;;
46210;SDS011;52144;48.040;-1.594;2023-02-16T08:15:42;9.90;;;3.83;;
46210;SDS011;52144;48.040;-1.594;2023-02-16T08:18:11;6.95;;;3.85;;
46210;SDS011;52144;48.040;-1.594;2023-02-16T08:20:40;8.88;;;4.70;;
46210;SDS011;52144;48.040;-1.594;2023-02-16T08:23:28;7.70;;;4.80;;
46210;SDS011;52144;48.040;-1.594;2023-02-16T08:25:56;7.47;;;3.67;;
46210;SDS011;52144;48.040;-1.594;2023-02-16T08:28:24;4.32;;;3.53;;
46210;SDS011;52144;48.040;-1.594;2023-02-16T08:30:53;9.00;;;4.60;;
46210;SDS011;52144;48.040;-1.594;2023-02-16T08:33:23;4.40;;;3.63;;
46210;SDS011;52144;48.040;-1.594;2023-02-16T08:35:51;5.65;;;3.42;;
46210;SDS011;52144;48.040;-1.594;2023-02-16T08:38:18;4.72;;;3.28;;
46210;SDS011;52144;48.040;-1.594;2023-02-16T08:40:47;8.48;;;3.83;;
46210;SDS011;52144;48.040;-1.594;2023-02-16T08:43:14;4.40;;;3.95;;
46210;SDS011;52144;48.040;-1.594;2023-02-16T08:45:42;9.18;;;3.25;;
46210;SDS011;52144;48.040;-1.594;2023-02-16T08:48:10;8.02;;;3.58;;
46210;SDS011;52144;48.040;-1.594;2023-02-16T08:50:43;7.88;;;3.95;;
46210;SDS011;52144;48.040;-1.594;2023-02-16T08:53:18;8.63;;;3.63;;
46210;SDS011;52144;48.040;-1.594;2023-02-16T08:55:50;5.22;;;2.65;;
46210;SDS011;52144;48.040;-1.594;2023-02-16T08:58:18;6.60;;;3.10;;
46210;SDS011;52144;48.040;-1.594;2023-02-16T09:00:46;6.65;;;2.63;;
46210;SDS011;52144;48.040;-1.594;2023-02-16T09:03:15;8.88;;;2.65;;
46210;SDS011;52144;48.040;-1.594;2023-02-16T09:05:45;8.40;;;3.42;;
46210;SDS011;52144;48.040;-1.594;2023-02-16T09:08:13;5.70;;;2.65;;
46210;SDS011;52144;48.040;-1.594;2023-02-16T09:10:42;7.65;;;2.90;;
46210;SDS011;52144;48.040;-1.594;2023-02-16T09:13:10;5.35;;;2.72;;
46210;SDS011;52144;48.040;-1.594;2023-02-16T09:15:40;4.90;;;3.65;;
46210;SDS011;52144;48.040;-1.594;2023-02-16T09:18:08;16.83;;;3.67;;
46210;SDS011;52144;48.040;-1.594;2023-02-16T09:20:37;8.43;;;2.55;;
46210;SDS011;52144;48.040;-1.594;2023-02-16T09:23:08;9.48;;;2.50;;
46210;SDS011;52144;48.040;-1.594;2023-02-16T09:25:39;3.75;;;2.53;;
46210;SDS011;52144;48.040;-1.594;2023-02-16T09:28:07;4.15;;;2.28;;
46210;SDS011;52144;48.040;-1.594;2023-02-16T09:30:36;5.97;;;3.13;;
46210;SDS011;52144;48.040;-1.594;2023-02-16T09:33:05;5.43;;;2.35;;
46210;SDS011;52144;48.040;-1.594;2023-02-16T09:35:32;6.40;;;2.55;;
46210;SDS011;52144;48.040;-1.594;2023-02-16T09:38:00;4.40;;;2.53;;
46210;SDS011;52144;48.040;-1.594;2023-02-16T09:40:30;3.17;;;2.58;;
46210;SDS011;52144;48.040;-1.594;2023-02-16T09:43:00;5.22;;;2.13;;
46210;SDS011;52144;48.040;-1.594;2023-02-16T09:45:40;5.57;;;2.45;;
46210;SDS011;52144;48.040;-1.594;2023-02-16T09:48:13;5.15;;;2.33;;
46210;SDS011;52144;48.040;-1.594;2023-02-16T09:50:49;10.30;;;2.60;;
46210;SDS011;52144;48.040;-1.594;2023-02-16T09:53:21;4.78;;;2.55;;
46210;SDS011;52144;48.040;-1.594;2023-02-16T09:55:58;3.25;;;2.08;;
46210;SDS011;52144;48.040;-1.594;2023-02-16T09:58:36;9.90;;;2.15;;
46210;SDS011;52144;48.040;-1.594;2023-02-16T10:01:10;2.55;;;1.65;;
46210;SDS011;52144;48.040;-1.594;2023-02-16T10:03:53;2.75;;;1.73;;
46210;SDS011;52144;48.040;-1.594;2023-02-16T10:06:40;4.78;;;2.10;;
46210;SDS011;52144;48.040;-1.594;2023-02-16T10:09:16;7.90;;;2.40;;
46210;SDS011;52144;48.040;-1.594;2023-02-16T10:11:47;2.60;;;1.67;;
46210;SDS011;52144;48.040;-1.594;2023-02-16T10:14:23;5.85;;;2.03;;
46210;SDS011;52144;48.040;-1.594;2023-02-16T10:16:59;1.48;;;1.17;;
46210;SDS011;52144;48.040;-1.594;2023-02-16T10:19:34;2.25;;;1.55;;
46210;SDS011;52144;48.040;-1.594;2023-02-16T10:22:07;5.43;;;1.67;;
46210;SDS011;52144;48.040;-1.594;2023-02-16T10:24:44;6.97;;;3.42;;
46210;SDS011;52144;48.040;-1.594;2023-02-16T10:27:19;5.90;;;1.92;;
46210;SDS011;52144;48.040;-1.594;2023-02-16T10:29:48;6.75;;;2.15;;
46210;SDS011;52144;48.040;-1.594;2023-02-16T10:32:19;7.60;;;1.83;;
46210;SDS011;52144;48.040;-1.594;2023-02-16T10:34:55;4.78;;;1.33;;
46210;SDS011;52144;48.040;-1.594;2023-02-16T10:37:41;2.17;;;1.65;;
46210;SDS011;52144;48.040;-1.594;2023-02-16T10:40:19;12.18;;;1.98;;
46210;SDS011;52144;48.040;-1.594;2023-02-16T10:42:57;1.83;;;1.52;;
46210;SDS011;52144;48.040;-1.594;2023-02-16T10:45:32;5.15;;;1.80;;
46210;SDS011;52144;48.040;-1.594;2023-02-16T10:48:03;7.18;;;1.63;;
46210;SDS011;52144;48.040;-1.594;2023-02-16T10:50:32;3.38;;;2.15;;
46210;SDS011;52144;48.040;-1.594;2023-02-16T10:53:05;3.33;;;2.00;;
46210;SDS011;52144;48.040;-1.594;2023-02-16T10:55:39;6.47;;;1.73;;
46210;SDS011;52144;48.040;-1.594;2023-02-16T10:58:14;10.48;;;2.10;;
46210;SDS011;52144;48.040;-1.594;2023-02-16T11:00:49;5.20;;;1.80;;
46210;SDS011;52144;48.040;-1.594;2023-02-16T11:03:22;4.25;;;1.63;;
46210;SDS011;52144;48.040;-1.594;2023-02-16T11:05:51;9.13;;;2.30;;
46210;SDS011;52144;48.040;-1.594;2023-02-16T11:08:19;3.55;;;1.50;;
46210;SDS011;52144;48.040;-1.594;2023-02-16T11:10:50;4.82;;;1.52;;
46210;SDS011;52144;48.040;-1.594;2023-02-16T11:13:23;4.57;;;1.65;;
46210;SDS011;52144;48.040;-1.594;2023-02-16T11:15:57;8.82;;;1.40;;
46210;SDS011;52144;48.040;-1.594;2023-02-16T11:18:28;1.10;;;1.00;;
46210;SDS011;52144;48.040;-1.594;2023-02-16T11:21:00;2.80;;;1.60;;
46210;SDS011;52144;48.040;-1.594;2023-02-16T11:23:29;1.65;;;1.27;;
46210;SDS011;52144;48.040;-1.594;2023-02-16T11:26:00;10.20;;;1.88;;
46210;SDS011;52144;48.040;-1.594;2023-02-16T11:28:33;2.92;;;1.08;;
46210;SDS011;52144;48.040;-1.594;2023-02-16T11:31:10;2.40;;;1.48;;
46210;SDS011;52144;48.040;-1.594;2023-02-16T11:33:41;1.60;;;0.85;;
46210;SDS011;52144;48.040;-1.594;2023-02-16T11:36:20;2.25;;;1.10;;
46210;SDS011;52144;48.040;-1.594;2023-02-16T11:38:54;1.58;;;1.40;;
46210;SDS011;52144;48.040;-1.594;2023-02-16T11:41:25;1.90;;;1.10;;
46210;SDS011;52144;48.040;-1.594;2023-02-16T11:43:56;4.90;;;1.58;;
46210;SDS011;52144;48.040;-1.594;2023-02-16T11:46:24;3.83;;;0.98;;
46210;SDS011;52144;48.040;-1.594;2023-02-16T11:48:52;3.85;;;1.42;;
46210;SDS011;52144;48.040;-1.594;2023-02-16T11:51:30;1.95;;;1.48;;
46210;SDS011;52144;48.040;-1.594;2023-02-16T11:54:01;5.88;;;0.90;;
46210;SDS011;52144;48.040;-1.594;2023-02-16T11:56:31;2.92;;;1.00;;
46210;SDS011;52144;48.040;-1.594;2023-02-16T11:59:04;4.68;;;1.05;;
46210;SDS011;52144;48.040;-1.594;2023-02-16T12:01:49;3.80;;;0.82;;
46210;SDS011;52144;48.040;-1.594;2023-02-16T12:04:38;10.63;;;1.08;;
46210;SDS011;52144;48.040;-1.594;2023-02-16T12:07:16;2.88;;;1.08;;
46210;SDS011;52144;48.040;-1.594;2023-02-16T12:09:54;1.98;;;1.40;;
46210;SDS011;52144;48.040;-1.594;2023-02-16T12:12:30;1.20;;;0.90;;
46210;SDS011;52144;48.040;-1.594;2023-02-16T12:15:05;2.20;;;1.23;;
46210;SDS011;52144;48.040;-1.594;2023-02-16T12:20:44;0.82;;;0.70;;
46210;SDS011;52144;48.040;-1.594;2023-02-16T12:23:23;4.70;;;1.30;;
46210;SDS011;52144;48.040;-1.594;2023-02-16T12:26:03;5.22;;;1.38;;
46210;SDS011;52144;48.040;-1.594;2023-02-16T12:28:45;1.48;;;1.00;;
46210;SDS011;52144;48.040;-1.594;2023-02-16T12:31:19;1.65;;;1.45;;
46210;SDS011;52144;48.040;-1.594;2023-02-16T12:33:57;2.13;;;0.75;;
46210;SDS011;52144;48.040;-1.594;2023-02-16T12:39:18;2.85;;;0.80;;
46210;SDS011;52144;48.040;-1.594;2023-02-16T12:41:57;1.30;;;0.70;;
46210;SDS011;52144;48.040;-1.594;2023-02-16T12:44:40;9.30;;;1.25;;
46210;SDS011;52144;48.040;-1.594;2023-02-16T12:47:15;2.85;;;1.30;;
46210;SDS011;52144;48.040;-1.594;2023-02-16T12:49:50;4.68;;;1.05;;
46210;SDS011;52144;48.040;-1.594;2023-02-16T12:52:23;2.53;;;0.82;;
46210;SDS011;52144;48.040;-1.594;2023-02-16T12:54:58;2.42;;;0.73;;
46210;SDS011;52144;48.040;-1.594;2023-02-16T12:57:37;1.20;;;1.10;;
46210;SDS011;52144;48.040;-1.594;2023-02-16T13:00:18;1.38;;;0.77;;
46210;SDS011;52144;48.040;-1.594;2023-02-16T13:02:54;6.38;;;0.93;;
46210;SDS011;52144;48.040;-1.594;2023-02-16T13:05:30;1.73;;;0.82;;
46210;SDS011;52144;48.040;-1.594;2023-02-16T13:08:04;6.57;;;1.48;;
46210;SDS011;52144;48.040;-1.594;2023-02-16T13:10:42;8.88;;;1.00;;
46210;SDS011;52144;48.040;-1.594;2023-02-16T13:13:19;0.60;;;0.55;;
46210;SDS011;52144;48.040;-1.594;2023-02-16T13:15:51;2.83;;;1.02;;
46210;SDS011;52144;48.040;-1.594;2023-02-16T13:18:28;1.35;;;0.73;;
46210;SDS011;52144;48.040;-1.594;2023-02-16T13:21:01;3.95;;;0.88;;
46210;SDS011;52144;48.040;-1.594;2023-02-16T13:23:36;1.33;;;0.90;;
46210;SDS011;52144;48.040;-1.594;2023-02-16T13:26:26;1.83;;;0.80;;
46210;SDS011;52144;48.040;-1.594;2023-02-16T13:32:00;2.25;;;0.98;;
46210;SDS011;52144;48.040;-1.594;2023-02-16T13:34:54;0.90;;;0.55;;
46210;SDS011;52144;48.040;-1.594;2023-02-16T13:37:38;4.13;;;0.93;;
46210;SDS011;52144;48.040;-1.594;2023-02-16T13:40:17;1.77;;;1.17;;
46210;SDS011;52144;48.040;-1.594;2023-02-16T13:43:04;1.65;;;1.02;;
46210;SDS011;52144;48.040;-1.594;2023-02-16T13:45:42;3.00;;;1.40;;
46210;SDS011;52144;48.040;-1.594;2023-02-16T13:48:13;9.32;;;1.83;;
46210;SDS011;52144;48.040;-1.594;2023-02-16T13:50:54;1.17;;;0.70;;
46210;SDS011;52144;48.040;-1.594;2023-02-16T13:53:29;1.92;;;0.95;;
46210;SDS011;52144;48.040;-1.594;2023-02-16T13:56:11;6.80;;;0.95;;
46210;SDS011;52144;48.040;-1.594;2023-02-16T13:58:42;4.35;;;1.15;;
46210;SDS011;52144;48.040;-1.594;2023-02-16T14:04:04;3.85;;;0.88;;
46210;SDS011;52144;48.040;-1.594;2023-02-16T14:06:40;1.13;;;1.02;;
46210;SDS011;52144;48.040;-1.594;2023-02-16T14:12:03;6.10;;;0.95;;
46210;SDS011;52144;48.040;-1.594;2023-02-16T14:14:43;12.10;;;1.23;;
46210;SDS011;52144;48.040;-1.594;2023-02-16T14:17:22;9.45;;;1.48;;
46210;SDS011;52144;48.040;-1.594;2023-02-16T14:19:53;5.03;;;1.50;;
46210;SDS011;52144;48.040;-1.594;2023-02-16T14:22:26;4.97;;;1.40;;
46210;SDS011;52144;48.040;-1.594;2023-02-16T14:25:00;4.03;;;1.40;;
46210;SDS011;52144;48.040;-1.594;2023-02-16T14:27:38;5.68;;;2.30;;
46210;SDS011;52144;48.040;-1.594;2023-02-16T14:30:18;7.22;;;2.80;;
46210;SDS011;52144;48.040;-1.594;2023-02-16T14:32:52;11.18;;;3.83;;
46210;SDS011;52144;48.040;-1.594;2023-02-16T14:35:27;11.55;;;3.88;;
46210;SDS011;52144;48.040;-1.594;2023-02-16T14:38:01;9.45;;;2.67;;
46210;SDS011;52144;48.040;-1.594;2023-02-16T14:40:39;7.07;;;2.67;;
46210;SDS011;52144;48.040;-1.594;2023-02-16T14:43:19;8.40;;;3.10;;
46210;SDS011;52144;48.040;-1.594;2023-02-16T14:49:07;2.17;;;1.40;;
46210;SDS011;52144;48.040;-1.594;2023-02-16T14:52:02;4.30;;;1.00;;
46210;SDS011;52144;48.040;-1.594;2023-02-16T14:58:12;1.40;;;0.68;;
46210;SDS011;52144;48.040;-1.594;2023-02-16T15:00:54;1.83;;;0.90;;
46210;SDS011;52144;48.040;-1.594;2023-02-16T15:03:38;1.75;;;0.80;;
46210;SDS011;52144;48.040;-1.594;2023-02-16T15:06:10;1.02;;;0.80;;
46210;SDS011;52144;48.040;-1.594;2023-02-16T15:08:46;1.20;;;0.57;;
46210;SDS011;52144;48.040;-1.594;2023-02-16T15:11:26;4.07;;;1.05;;
46210;SDS011;52144;48.040;-1.594;2023-02-16T15:14:01;2.03;;;0.57;;
46210;SDS011;52144;48.040;-1.594;2023-02-16T15:16:30;3.42;;;0.50;;
46210;SDS011;52144;48.040;-1.594;2023-02-16T15:19:01;9.43;;;1.17;;
46210;SDS011;52144;48.040;-1.594;2023-02-16T15:21:34;1.55;;;0.50;;
46210;SDS011;52144;48.040;-1.594;2023-02-16T15:24:02;1.25;;;0.75;;
46210;SDS011;52144;48.040;-1.594;2023-02-16T15:26:33;1.75;;;0.90;;
46210;SDS011;52144;48.040;-1.594;2023-02-16T15:29:12;0.95;;;0.88;;
46210;SDS011;52144;48.040;-1.594;2023-02-16T15:31:47;1.65;;;1.55;;